sensor_id;sensor_type;location;lat;lon;timestamp;pressure;altitude;pressure_sealevel;temperature;humidity
78745;BME280;68064;53.100;8.824;2023-05-03T00:00:19;102979.50;;;5.14;58.44
78745;BME280;68064;53.100;8.824;2023-05-03T00:01:20;102973.38;;;5.12;58.35
78745;BME280;68064;53.100;8.824;2023-05-03T00:02:23;102970.84;;;5.12;58.34
78745;BME280;68064;53.100;8.824;2023-05-03T00:03:24;102979.38;;;5.13;58.51
78745;BME280;68064;53.100;8.824;2023-05-03T00:04:25;102980.09;;;5.12;58.56
78745;BME280;68064;53.100;8.824;2023-05-03T00:05:26;102977.56;;;5.12;58.54
78745;BME280;68064;53.100;8.824;2023-05-03T00:06:27;102976.66;;;5.11;58.27
78745;BME280;68064;53.100;8.824;2023-05-03T00:07:28;102977.56;;;5.12;58.60
78745;BME280;68064;53.100;8.824;2023-05-03T00:08:29;102978.28;;;5.11;58.56
78745;BME280;68064;53.100;8.824;2023-05-03T00:09:32;102981.59;;;5.10;58.45
78745;BME280;68064;53.100;8.824;2023-05-03T00:10:33;102975.44;;;5.08;58.65
78745;BME280;68064;53.100;8.824;2023-05-03T00:11:34;102975.31;;;5.06;58.84
78745;BME280;68064;53.100;8.824;2023-05-03T00:12:37;102981.13;;;5.05;58.49
78745;BME280;68064;53.100;8.824;2023-05-03T00:13:38;102981.88;;;5.04;58.49
78745;BME280;68064;53.100;8.824;2023-05-03T00:14:39;102980.22;;;5.05;58.33
78745;BME280;68064;53.100;8.824;2023-05-03T00:15:40;102980.09;;;5.03;58.68
78745;BME280;68064;53.100;8.824;2023-05-03T00:16:41;102974.84;;;5.02;58.72
78745;BME280;68064;53.100;8.824;2023-05-03T00:17:44;102982.47;;;5.02;58.71
78745;BME280;68064;53.100;8.824;2023-05-03T00:18:45;102975.63;;;5.01;58.91
78745;BME280;68064;53.100;8.824;2023-05-03T00:19:46;102983.06;;;4.99;58.97
78745;BME280;68064;53.100;8.824;2023-05-03T00:20:47;102973.50;;;4.97;58.91
78745;BME280;68064;53.100;8.824;2023-05-03T00:21:48;102972.31;;;4.93;58.95
78745;BME280;68064;53.100;8.824;2023-05-03T00:22:49;102976.47;;;4.93;59.31
78745;BME280;68064;53.100;8.824;2023-05-03T00:23:50;102972.13;;;4.92;59.21
78745;BME280;68064;53.100;8.824;2023-05-03T00:24:51;102975.28;;;4.89;59.01
78745;BME280;68064;53.100;8.824;2023-05-03T00:25:53;102972.59;;;4.88;58.90
78745;BME280;68064;53.100;8.824;2023-05-03T00:26:55;102974.97;;;4.86;59.40
78745;BME280;68064;53.100;8.824;2023-05-03T00:27:56;102975.56;;;4.84;59.51
78745;BME280;68064;53.100;8.824;2023-05-03T00:28:57;102977.94;;;4.82;59.49
78745;BME280;68064;53.100;8.824;2023-05-03T00:29:58;102977.63;;;4.79;59.32
78745;BME280;68064;53.100;8.824;2023-05-03T00:31:05;102977.50;;;4.77;58.98
78745;BME280;68064;53.100;8.824;2023-05-03T00:32:07;102981.66;;;4.77;59.39
78745;BME280;68064;53.100;8.824;2023-05-03T00:33:09;102978.97;;;4.75;59.42
78745;BME280;68064;53.100;8.824;2023-05-03T00:34:10;102978.66;;;4.72;59.24
78745;BME280;68064;53.100;8.824;2023-05-03T00:35:11;102975.25;;;4.72;59.36
78745;BME280;68064;53.100;8.824;2023-05-03T00:36:13;102976.59;;;4.68;59.32
78745;BME280;68064;53.100;8.824;2023-05-03T00:37:15;102980.59;;;4.66;59.19
78745;BME280;68064;53.100;8.824;2023-05-03T00:38:16;102974.59;;;4.66;59.17
78745;BME280;68064;53.100;8.824;2023-05-03T00:39:17;102981.19;;;4.64;59.28
78745;BME280;68064;53.100;8.824;2023-05-03T00:40:18;102969.09;;;4.61;59.08
78745;BME280;68064;53.100;8.824;2023-05-03T00:41:19;102976.41;;;4.58;59.27
78745;BME280;68064;53.100;8.824;2023-05-03T00:42:20;102978.63;;;4.55;59.40
78745;BME280;68064;53.100;8.824;2023-05-03T00:43:21;102974.47;;;4.56;59.04
78745;BME280;68064;53.100;8.824;2023-05-03T00:44:22;102973.38;;;4.54;59.46
78745;BME280;68064;53.100;8.824;2023-05-03T00:45:23;102972.34;;;4.52;59.31
78745;BME280;68064;53.100;8.824;2023-05-03T00:46:24;102973.06;;;4.51;59.12
78745;BME280;68064;53.100;8.824;2023-05-03T00:47:25;102976.50;;;4.51;59.34
78745;BME280;68064;53.100;8.824;2023-05-03T00:48:28;102971.13;;;4.48;59.59
78745;BME280;68064;53.100;8.824;2023-05-03T00:49:29;102974.41;;;4.47;59.47
78745;BME280;68064;53.100;8.824;2023-05-03T00:50:30;102970.81;;;4.45;59.30
78745;BME280;68064;53.100;8.824;2023-05-03T00:51:31;102979.34;;;4.46;59.22
78745;BME280;68064;53.100;8.824;2023-05-03T00:52:32;102975.91;;;4.45;59.73
78745;BME280;68064;53.100;8.824;2023-05-03T00:53:34;102981.38;;;4.41;59.64
78745;BME280;68064;53.100;8.824;2023-05-03T00:54:35;102985.25;;;4.38;60.03
78745;BME280;68064;53.100;8.824;2023-05-03T00:55:36;102981.81;;;4.37;59.81
78745;BME280;68064;53.100;8.824;2023-05-03T00:56:38;102986.56;;;4.34;59.50
78745;BME280;68064;53.100;8.824;2023-05-03T00:57:39;102977.03;;;4.32;59.84
78745;BME280;68064;53.100;8.824;2023-05-03T00:58:40;102978.66;;;4.31;60.05
78745;BME280;68064;53.100;8.824;2023-05-03T00:59:42;102978.53;;;4.30;59.82
78745;BME280;68064;53.100;8.824;2023-05-03T01:00:43;102981.06;;;4.30;59.80
78745;BME280;68064;53.100;8.824;2023-05-03T01:01:47;102973.13;;;4.26;59.85
78745;BME280;68064;53.100;8.824;2023-05-03T01:02:48;102982.53;;;4.28;59.96
78745;BME280;68064;53.100;8.824;2023-05-03T01:03:51;102978.81;;;4.24;59.98
78745;BME280;68064;53.100;8.824;2023-05-03T01:04:52;102982.34;;;4.17;60.23
78745;BME280;68064;53.100;8.824;2023-05-03T01:06:02;102988.16;;;4.16;60.32
78745;BME280;68064;53.100;8.824;2023-05-03T01:07:17;102992.31;;;4.16;59.88
78745;BME280;68064;53.100;8.824;2023-05-03T01:08:28;102982.59;;;4.12;59.97
78745;BME280;68064;53.100;8.824;2023-05-03T01:09:36;102974.84;;;4.10;60.07
78745;BME280;68064;53.100;8.824;2023-05-03T01:10:42;102978.88;;;4.08;60.72
78745;BME280;68064;53.100;8.824;2023-05-03T01:11:52;102974.66;;;4.09;60.44
78745;BME280;68064;53.100;8.824;2023-05-03T01:13:00;102982.28;;;4.09;60.45
78745;BME280;68064;53.100;8.824;2023-05-03T01:14:09;102979.59;;;4.07;60.63
78745;BME280;68064;53.100;8.824;2023-05-03T01:15:21;102984.66;;;4.07;60.37
78745;BME280;68064;53.100;8.824;2023-05-03T01:16:30;102981.22;;;4.07;60.24
78745;BME280;68064;53.100;8.824;2023-05-03T01:17:38;102976.75;;;4.04;60.27
78745;BME280;68064;53.100;8.824;2023-05-03T01:18:41;102985.09;;;4.03;60.46
78745;BME280;68064;53.100;8.824;2023-05-03T01:19:47;102986.56;;;4.01;60.85
78745;BME280;68064;53.100;8.824;2023-05-03T01:20:49;102989.84;;;4.00;60.84
78745;BME280;68064;53.100;8.824;2023-05-03T01:22:02;102989.69;;;3.99;60.45
78745;BME280;68064;53.100;8.824;2023-05-03T01:23:10;102985.34;;;3.98;60.46
78745;BME280;68064;53.100;8.824;2023-05-03T01:24:17;102986.25;;;3.98;60.47
78745;BME280;68064;53.100;8.824;2023-05-03T01:25:23;102990.44;;;3.98;60.43
78745;BME280;68064;53.100;8.824;2023-05-03T01:26:26;102988.47;;;3.95;60.43
78745;BME280;68064;53.100;8.824;2023-05-03T01:27:27;102985.03;;;3.95;60.47
78745;BME280;68064;53.100;8.824;2023-05-03T01:28:28;102993.69;;;3.97;60.25
78745;BME280;68064;53.100;8.824;2023-05-03T01:29:29;102980.13;;;3.96;60.51
78745;BME280;68064;53.100;8.824;2023-05-03T01:30:31;102984.13;;;3.94;60.83
78745;BME280;68064;53.100;8.824;2023-05-03T01:31:36;102981.13;;;3.90;61.02
78745;BME280;68064;53.100;8.824;2023-05-03T01:32:49;102988.91;;;3.91;60.85
78745;BME280;68064;53.100;8.824;2023-05-03T01:34:13;102987.09;;;3.90;60.38
78745;BME280;68064;53.100;8.824;2023-05-03T01:35:22;102990.22;;;3.88;60.81
78745;BME280;68064;53.100;8.824;2023-05-03T01:36:29;102984.56;;;3.90;60.97
78745;BME280;68064;53.100;8.824;2023-05-03T01:37:31;102987.25;;;3.92;60.72
78745;BME280;68064;53.100;8.824;2023-05-03T01:38:35;102990.09;;;3.95;60.91
78745;BME280;68064;53.100;8.824;2023-05-03T01:39:43;102982.50;;;3.95;60.66
78745;BME280;68064;53.100;8.824;2023-05-03T01:40:50;102990.25;;;3.96;61.16
78745;BME280;68064;53.100;8.824;2023-05-03T01:41:52;102986.81;;;3.96;61.19
78745;BME280;68064;53.100;8.824;2023-05-03T01:42:54;102985.19;;;3.96;61.17
78745;BME280;68064;53.100;8.824;2023-05-03T01:43:56;102987.41;;;3.93;60.90
78745;BME280;68064;53.100;8.824;2023-05-03T01:44:58;102992.63;;;3.95;60.70
78745;BME280;68064;53.100;8.824;2023-05-03T01:46:00;102987.41;;;3.93;61.02
78745;BME280;68064;53.100;8.824;2023-05-03T01:47:01;102989.22;;;3.94;60.93
78745;BME280;68064;53.100;8.824;2023-05-03T01:48:04;102990.84;;;3.94;60.57
78745;BME280;68064;53.100;8.824;2023-05-03T01:49:08;102987.25;;;3.92;61.16
78745;BME280;68064;53.100;8.824;2023-05-03T01:50:09;102994.88;;;3.92;60.88
78745;BME280;68064;53.100;8.824;2023-05-03T01:51:10;102999.75;;;3.90;62.76
78745;BME280;68064;53.100;8.824;2023-05-03T01:52:11;102999.63;;;3.89;61.40
78745;BME280;68064;53.100;8.824;2023-05-03T01:53:12;102992.16;;;3.90;60.76
78745;BME280;68064;53.100;8.824;2023-05-03T01:54:13;102994.88;;;3.92;60.67
78745;BME280;68064;53.100;8.824;2023-05-03T01:55:14;102993.97;;;3.91;60.87
78745;BME280;68064;53.100;8.824;2023-05-03T01:56:17;102988.56;;;3.88;60.73
78745;BME280;68064;53.100;8.824;2023-05-03T01:57:18;102991.25;;;3.90;60.56
78745;BME280;68064;53.100;8.824;2023-05-03T01:58:19;102992.31;;;3.92;61.13
78745;BME280;68064;53.100;8.824;2023-05-03T01:59:20;102988.31;;;3.94;60.56
78745;BME280;68064;53.100;8.824;2023-05-03T02:00:21;102993.69;;;3.97;60.48
78745;BME280;68064;53.100;8.824;2023-05-03T02:01:22;102995.19;;;3.95;61.51
78745;BME280;68064;53.100;8.824;2023-05-03T02:02:23;102995.19;;;3.95;60.62
78745;BME280;68064;53.100;8.824;2023-05-03T02:03:24;102985.94;;;3.95;61.01
78745;BME280;68064;53.100;8.824;2023-05-03T02:04:25;102998.16;;;3.99;60.62
78745;BME280;68064;53.100;8.824;2023-05-03T02:05:26;102995.63;;;3.99;61.36
78745;BME280;68064;53.100;8.824;2023-05-03T02:06:27;102998.75;;;3.97;65.65
78745;BME280;68064;53.100;8.824;2023-05-03T02:07:29;102996.09;;;3.95;62.02
78745;BME280;68064;53.100;8.824;2023-05-03T02:08:30;102995.19;;;3.95;62.08
78745;BME280;68064;53.100;8.824;2023-05-03T02:09:31;102998.63;;;3.95;61.56
78745;BME280;68064;53.100;8.824;2023-05-03T02:10:32;102999.47;;;3.96;65.49
78745;BME280;68064;53.100;8.824;2023-05-03T02:11:34;103001.88;;;3.94;65.09
78745;BME280;68064;53.100;8.824;2023-05-03T02:12:35;103001.88;;;3.94;67.61
78745;BME280;68064;53.100;8.824;2023-05-03T02:13:37;103005.59;;;3.89;64.75
78745;BME280;68064;53.100;8.824;2023-05-03T02:14:38;103006.31;;;3.88;62.84
78745;BME280;68064;53.100;8.824;2023-05-03T02:15:39;103003.38;;;3.92;61.96
78745;BME280;68064;53.100;8.824;2023-05-03T02:16:40;103003.69;;;3.95;61.47
78745;BME280;68064;53.100;8.824;2023-05-03T02:17:42;103007.25;;;3.97;61.43
78745;BME280;68064;53.100;8.824;2023-05-03T02:18:43;103002.91;;;3.96;61.08
78745;BME280;68064;53.100;8.824;2023-05-03T02:19:44;103003.50;;;3.94;61.40
78745;BME280;68064;53.100;8.824;2023-05-03T02:20:45;103002.59;;;3.93;62.32
78745;BME280;68064;53.100;8.824;2023-05-03T02:21:46;103005.31;;;3.95;61.50
78745;BME280;68064;53.100;8.824;2023-05-03T02:22:47;103008.16;;;3.98;61.34
78745;BME280;68064;53.100;8.824;2023-05-03T02:23:48;103003.22;;;3.99;60.60
78745;BME280;68064;53.100;8.824;2023-05-03T02:24:49;103012.22;;;4.04;67.62
78745;BME280;68064;53.100;8.824;2023-05-03T02:25:50;103005.94;;;4.01;63.63
78745;BME280;68064;53.100;8.824;2023-05-03T02:26:53;103002.81;;;4.03;61.64
78745;BME280;68064;53.100;8.824;2023-05-03T02:27:54;103011.47;;;4.05;61.71
78745;BME280;68064;53.100;8.824;2023-05-03T02:28:55;103007.31;;;4.06;61.13
78745;BME280;68064;53.100;8.824;2023-05-03T02:29:56;103007.47;;;4.07;60.71
78745;BME280;68064;53.100;8.824;2023-05-03T02:30:57;103019.41;;;4.08;61.23
78745;BME280;68064;53.100;8.824;2023-05-03T02:31:58;103006.16;;;4.11;60.41
78745;BME280;68064;53.100;8.824;2023-05-03T02:32:59;103011.38;;;4.12;61.29
78745;BME280;68064;53.100;8.824;2023-05-03T02:34:00;103012.84;;;4.10;62.12
78745;BME280;68064;53.100;8.824;2023-05-03T02:35:01;103013.75;;;4.11;60.94
78745;BME280;68064;53.100;8.824;2023-05-03T02:36:03;103014.81;;;4.13;65.72
78745;BME280;68064;53.100;8.824;2023-05-03T02:37:04;103020.28;;;4.09;63.10
78745;BME280;68064;53.100;8.824;2023-05-03T02:38:05;103018.50;;;4.08;61.67
78745;BME280;68064;53.100;8.824;2023-05-03T02:39:06;103018.84;;;4.11;66.27
78745;BME280;68064;53.100;8.824;2023-05-03T02:40:08;103015.53;;;4.12;65.50
78745;BME280;68064;53.100;8.824;2023-05-03T02:41:09;103016.59;;;4.14;61.73
78745;BME280;68064;53.100;8.824;2023-05-03T02:42:11;103017.06;;;4.18;65.53
78745;BME280;68064;53.100;8.824;2023-05-03T02:43:12;103017.97;;;4.19;68.66
78745;BME280;68064;53.100;8.824;2023-05-03T02:44:13;103023.63;;;4.16;66.51
78745;BME280;68064;53.100;8.824;2023-05-03T02:45:15;103023.81;;;4.18;67.92
78745;BME280;68064;53.100;8.824;2023-05-03T02:46:16;103019.34;;;4.24;72.55
78745;BME280;68064;53.100;8.824;2023-05-03T02:47:17;103018.75;;;4.26;73.45
78745;BME280;68064;53.100;8.824;2023-05-03T02:48:18;103015.00;;;4.23;71.53
78745;BME280;68064;53.100;8.824;2023-05-03T02:49:19;103014.69;;;4.20;69.36
78745;BME280;68064;53.100;8.824;2023-05-03T02:50:20;103017.97;;;4.19;65.94
78745;BME280;68064;53.100;8.824;2023-05-03T02:51:21;103011.06;;;4.34;74.98
78745;BME280;68064;53.100;8.824;2023-05-03T02:52:22;103011.22;;;4.44;77.59
78745;BME280;68064;53.100;8.824;2023-05-03T02:53:23;103007.63;;;4.33;73.18
78745;BME280;68064;53.100;8.824;2023-05-03T02:54:24;103011.94;;;4.34;73.94
78745;BME280;68064;53.100;8.824;2023-05-03T02:55:26;103011.38;;;4.37;75.79
78745;BME280;68064;53.100;8.824;2023-05-03T02:56:27;103011.22;;;4.44;77.25
78745;BME280;68064;53.100;8.824;2023-05-03T02:57:29;103009.38;;;4.34;70.16
78745;BME280;68064;53.100;8.824;2023-05-03T02:58:30;103007.94;;;4.36;66.17
78745;BME280;68064;53.100;8.824;2023-05-03T02:59:31;103008.84;;;4.45;72.93
78745;BME280;68064;53.100;8.824;2023-05-03T03:00:32;103011.72;;;4.57;75.63
78745;BME280;68064;53.100;8.824;2023-05-03T03:01:33;103015.28;;;4.50;74.88
78745;BME280;68064;53.100;8.824;2023-05-03T03:02:34;103019.16;;;4.47;72.12
78745;BME280;68064;53.100;8.824;2023-05-03T03:03:35;103014.66;;;4.44;71.23
78745;BME280;68064;53.100;8.824;2023-05-03T03:04:36;103002.00;;;4.44;66.94
78745;BME280;68064;53.100;8.824;2023-05-03T03:05:37;103010.41;;;4.60;75.47
78745;BME280;68064;53.100;8.824;2023-05-03T03:06:38;103009.38;;;4.58;75.66
78745;BME280;68064;53.100;8.824;2023-05-03T03:07:39;103009.47;;;4.51;72.37
78745;BME280;68064;53.100;8.824;2023-05-03T03:08:40;103007.38;;;4.47;69.95
78745;BME280;68064;53.100;8.824;2023-05-03T03:09:41;103001.75;;;4.50;71.17
78745;BME280;68064;53.100;8.824;2023-05-03T03:10:42;103005.00;;;4.49;70.65
78745;BME280;68064;53.100;8.824;2023-05-03T03:11:44;103006.81;;;4.50;70.69
78745;BME280;68064;53.100;8.824;2023-05-03T03:12:46;103002.34;;;4.56;73.92
78745;BME280;68064;53.100;8.824;2023-05-03T03:13:47;103001.66;;;4.65;76.85
78745;BME280;68064;53.100;8.824;2023-05-03T03:14:48;103006.09;;;4.59;75.36
78745;BME280;68064;53.100;8.824;2023-05-03T03:15:49;103004.88;;;4.56;72.85
78745;BME280;68064;53.100;8.824;2023-05-03T03:16:50;103001.28;;;4.54;69.65
78745;BME280;68064;53.100;8.824;2023-05-03T03:17:51;103006.53;;;4.55;67.74
78745;BME280;68064;53.100;8.824;2023-05-03T03:18:52;102999.66;;;4.54;66.43
78745;BME280;68064;53.100;8.824;2023-05-03T03:19:53;102996.38;;;4.55;65.16
78745;BME280;68064;53.100;8.824;2023-05-03T03:20:54;102996.69;;;4.58;64.79
78745;BME280;68064;53.100;8.824;2023-05-03T03:21:55;102994.16;;;4.58;64.29
78745;BME280;68064;53.100;8.824;2023-05-03T03:22:56;102996.09;;;4.61;64.46
78745;BME280;68064;53.100;8.824;2023-05-03T03:23:57;102998.81;;;4.62;63.86
78745;BME280;68064;53.100;8.824;2023-05-03T03:24:59;103002.50;;;4.66;62.21
78745;BME280;68064;53.100;8.824;2023-05-03T03:26:00;102991.94;;;4.70;62.52
78745;BME280;68064;53.100;8.824;2023-05-03T03:27:01;102989.41;;;4.70;63.19
78745;BME280;68064;53.100;8.824;2023-05-03T03:28:04;102997.50;;;4.74;61.18
78745;BME280;68064;53.100;8.824;2023-05-03T03:29:05;102996.59;;;4.74;61.20
78745;BME280;68064;53.100;8.824;2023-05-03T03:30:07;102996.72;;;4.75;62.75
78745;BME280;68064;53.100;8.824;2023-05-03T03:31:08;102992.56;;;4.76;61.71
78745;BME280;68064;53.100;8.824;2023-05-03T03:32:09;102996.91;;;4.77;61.63
78745;BME280;68064;53.100;8.824;2023-05-03T03:33:10;102993.44;;;4.76;61.55
78745;BME280;68064;53.100;8.824;2023-05-03T03:34:11;102993.94;;;4.81;60.76
78745;BME280;68064;53.100;8.824;2023-05-03T03:35:13;102993.16;;;4.82;62.76
78745;BME280;68064;53.100;8.824;2023-05-03T03:36:15;102994.97;;;4.83;64.51
78745;BME280;68064;53.100;8.824;2023-05-03T03:37:16;102995.88;;;4.84;65.24
78745;BME280;68064;53.100;8.824;2023-05-03T03:38:17;102993.94;;;4.81;63.26
78745;BME280;68064;53.100;8.824;2023-05-03T03:39:18;102991.38;;;4.81;63.47
78745;BME280;68064;53.100;8.824;2023-05-03T03:40:19;102994.84;;;4.82;61.88
78745;BME280;68064;53.100;8.824;2023-05-03T03:41:20;102993.34;;;4.84;62.94
78745;BME280;68064;53.100;8.824;2023-05-03T03:42:21;102993.16;;;4.82;62.48
78745;BME280;68064;53.100;8.824;2023-05-03T03:43:23;102995.88;;;4.84;62.37
78745;BME280;68064;53.100;8.824;2023-05-03T03:44:24;102991.69;;;4.84;61.19
78745;BME280;68064;53.100;8.824;2023-05-03T03:45:25;102997.66;;;4.85;61.19
78745;BME280;68064;53.100;8.824;2023-05-03T03:46:27;102997.97;;;4.88;63.17
78745;BME280;68064;53.100;8.824;2023-05-03T03:47:28;102993.81;;;4.88;61.88
78745;BME280;68064;53.100;8.824;2023-05-03T03:48:29;102993.94;;;4.90;60.77
78745;BME280;68064;53.100;8.824;2023-05-03T03:49:30;102999.19;;;4.91;60.45
78745;BME280;68064;53.100;8.824;2023-05-03T03:50:31;103002.75;;;4.93;60.92
78745;BME280;68064;53.100;8.824;2023-05-03T03:51:32;103000.06;;;4.92;61.49
78745;BME280;68064;53.100;8.824;2023-05-03T03:52:33;102991.09;;;4.95;60.61
78745;BME280;68064;53.100;8.824;2023-05-03T03:53:34;102993.66;;;4.95;60.49
78745;BME280;68064;53.100;8.824;2023-05-03T03:54:36;102997.25;;;4.97;61.25
78745;BME280;68064;53.100;8.824;2023-05-03T03:55:37;103001.56;;;4.98;62.99
78745;BME280;68064;53.100;8.824;2023-05-03T03:56:38;102989.66;;;4.97;62.66
78745;BME280;68064;53.100;8.824;2023-05-03T03:57:39;102987.09;;;4.97;62.54
78745;BME280;68064;53.100;8.824;2023-05-03T03:58:41;102988.13;;;4.99;63.80
78745;BME280;68064;53.100;8.824;2023-05-03T03:59:42;102989.19;;;5.01;67.90
78745;BME280;68064;53.100;8.824;2023-05-03T04:00:43;102994.84;;;4.99;64.58
78745;BME280;68064;53.100;8.824;2023-05-03T04:01:44;102992.63;;;5.02;68.03
78745;BME280;68064;53.100;8.824;2023-05-03T04:02:46;102998.00;;;5.05;70.58
78745;BME280;68064;53.100;8.824;2023-05-03T04:03:47;103000.22;;;5.02;67.52
78745;BME280;68064;53.100;8.824;2023-05-03T04:04:48;103002.63;;;5.00;65.26
78745;BME280;68064;53.100;8.824;2023-05-03T04:05:49;102998.47;;;5.01;63.31
78745;BME280;68064;53.100;8.824;2023-05-03T04:06:50;102998.59;;;5.02;62.60
78745;BME280;68064;53.100;8.824;2023-05-03T04:07:51;102994.56;;;5.04;63.69
78745;BME280;68064;53.100;8.824;2023-05-03T04:08:52;102998.75;;;5.04;63.52
78745;BME280;68064;53.100;8.824;2023-05-03T04:09:53;102999.78;;;5.06;65.22
78745;BME280;68064;53.100;8.824;2023-05-03T04:10:54;102995.63;;;5.06;64.23
78745;BME280;68064;53.100;8.824;2023-05-03T04:11:55;102999.19;;;5.08;67.51
78745;BME280;68064;53.100;8.824;2023-05-03T04:12:56;102999.19;;;5.08;66.83
78745;BME280;68064;53.100;8.824;2023-05-03T04:13:59;102993.22;;;5.08;64.80
78745;BME280;68064;53.100;8.824;2023-05-03T04:15:00;102990.69;;;5.08;63.73
78745;BME280;68064;53.100;8.824;2023-05-03T04:16:01;102999.38;;;5.10;64.21
78745;BME280;68064;53.100;8.824;2023-05-03T04:17:02;102993.53;;;5.11;65.58
78745;BME280;68064;53.100;8.824;2023-05-03T04:18:03;102997.72;;;5.10;63.17
78745;BME280;68064;53.100;8.824;2023-05-03T04:19:04;102998.59;;;5.11;62.41
78745;BME280;68064;53.100;8.824;2023-05-03T04:20:06;102997.88;;;5.12;62.75
78745;BME280;68064;53.100;8.824;2023-05-03T04:21:07;102997.44;;;5.16;66.58
78745;BME280;68064;53.100;8.824;2023-05-03T04:22:09;102999.97;;;5.16;65.55
78745;BME280;68064;53.100;8.824;2023-05-03T04:23:09;102993.25;;;5.16;64.19
78745;BME280;68064;53.100;8.824;2023-05-03T04:24:14;102991.63;;;5.17;63.18
78745;BME280;68064;53.100;8.824;2023-05-03T04:25:15;102987.56;;;5.19;64.87
78745;BME280;68064;53.100;8.824;2023-05-03T04:26:16;102997.00;;;5.20;63.43
78745;BME280;68064;53.100;8.824;2023-05-03T04:27:17;102991.03;;;5.19;63.15
78745;BME280;68064;53.100;8.824;2023-05-03T04:28:20;102990.41;;;5.22;63.70
78745;BME280;68064;53.100;8.824;2023-05-03T04:29:23;102992.97;;;5.22;64.07
78745;BME280;68064;53.100;8.824;2023-05-03T04:30:24;102988.91;;;5.24;63.00
78745;BME280;68064;53.100;8.824;2023-05-03T04:31:25;102995.50;;;5.30;69.19
78745;BME280;68064;53.100;8.824;2023-05-03T04:32:26;102991.91;;;5.37;74.83
78745;BME280;68064;53.100;8.824;2023-05-03T04:33:27;102986.22;;;5.40;77.63
78745;BME280;68064;53.100;8.824;2023-05-03T04:34:28;102995.53;;;5.39;77.42
78745;BME280;68064;53.100;8.824;2023-05-03T04:35:29;102998.63;;;5.37;74.81
78745;BME280;68064;53.100;8.824;2023-05-03T04:36:30;102986.41;;;5.32;71.52
78745;BME280;68064;53.100;8.824;2023-05-03T04:37:31;102997.28;;;5.31;67.32
78745;BME280;68064;53.100;8.824;2023-05-03T04:38:32;102991.47;;;5.32;66.08
78745;BME280;68064;53.100;8.824;2023-05-03T04:39:33;102985.63;;;5.33;66.17
78745;BME280;68064;53.100;8.824;2023-05-03T04:40:35;102986.84;;;5.37;70.11
78745;BME280;68064;53.100;8.824;2023-05-03T04:41:36;102982.94;;;5.41;73.03
78745;BME280;68064;53.100;8.824;2023-05-03T04:42:37;102989.84;;;5.42;74.10
78745;BME280;68064;53.100;8.824;2023-05-03T04:43:38;102999.22;;;5.43;73.17
78745;BME280;68064;53.100;8.824;2023-05-03T04:44:41;102991.47;;;5.41;71.86
78745;BME280;68064;53.100;8.824;2023-05-03T04:45:42;102996.84;;;5.44;73.37
78745;BME280;68064;53.100;8.824;2023-05-03T04:46:43;103004.03;;;5.48;75.93
78745;BME280;68064;53.100;8.824;2023-05-03T04:47:44;102995.94;;;5.52;77.32
78745;BME280;68064;53.100;8.824;2023-05-03T04:48:45;103003.72;;;5.54;76.61
78745;BME280;68064;53.100;8.824;2023-05-03T04:49:46;102998.66;;;5.54;76.36
78745;BME280;68064;53.100;8.824;2023-05-03T04:50:47;102996.22;;;5.55;76.46
78745;BME280;68064;53.100;8.824;2023-05-03T04:51:48;103000.72;;;5.49;72.59
78745;BME280;68064;53.100;8.824;2023-05-03T04:52:49;102999.09;;;5.50;72.38
78745;BME280;68064;53.100;8.824;2023-05-03T04:53:50;103001.91;;;5.53;73.17
78745;BME280;68064;53.100;8.824;2023-05-03T04:54:51;103000.44;;;5.55;74.12
78745;BME280;68064;53.100;8.824;2023-05-03T04:55:52;102999.69;;;5.56;74.02
78745;BME280;68064;53.100;8.824;2023-05-03T04:56:54;103004.31;;;5.60;75.54
78745;BME280;68064;53.100;8.824;2023-05-03T04:57:55;103001.66;;;5.58;73.84
78745;BME280;68064;53.100;8.824;2023-05-03T04:58:56;103002.69;;;5.60;75.12
78745;BME280;68064;53.100;8.824;2023-05-03T04:59:58;103001.94;;;5.61;75.16
78745;BME280;68064;53.100;8.824;2023-05-03T05:01:00;103009.25;;;5.67;76.91
78745;BME280;68064;53.100;8.824;2023-05-03T05:02:01;103009.25;;;5.67;76.50
78745;BME280;68064;53.100;8.824;2023-05-03T05:03:02;103006.09;;;5.69;76.50
78745;BME280;68064;53.100;8.824;2023-05-03T05:04:03;103008.81;;;5.71;76.43
78745;BME280;68064;53.100;8.824;2023-05-03T05:05:06;103013.13;;;5.72;75.81
78745;BME280;68064;53.100;8.824;2023-05-03T05:06:07;103008.94;;;5.72;75.13
78745;BME280;68064;53.100;8.824;2023-05-03T05:07:08;103012.69;;;5.76;76.31
78745;BME280;68064;53.100;8.824;2023-05-03T05:08:09;103006.69;;;5.75;75.16
78745;BME280;68064;53.100;8.824;2023-05-03T05:09:20;103012.38;;;5.81;77.66
78745;BME280;68064;53.100;8.824;2023-05-03T05:10:21;103015.19;;;5.84;77.86
78745;BME280;68064;53.100;8.824;2023-05-03T05:11:23;103012.97;;;5.88;77.35
78745;BME280;68064;53.100;8.824;2023-05-03T05:12:24;103012.53;;;5.83;73.77
78745;BME280;68064;53.100;8.824;2023-05-03T05:13:25;103012.97;;;5.88;75.09
78745;BME280;68064;53.100;8.824;2023-05-03T05:14:28;103020.03;;;5.90;75.01
78745;BME280;68064;53.100;8.824;2023-05-03T05:15:31;103017.91;;;5.95;75.90
78745;BME280;68064;53.100;8.824;2023-05-03T05:16:32;103019.72;;;5.96;75.44
78745;BME280;68064;53.100;8.824;2023-05-03T05:17:33;103021.66;;;5.98;75.54
78745;BME280;68064;53.100;8.824;2023-05-03T05:18:34;103025.38;;;6.02;75.84
78745;BME280;68064;53.100;8.824;2023-05-03T05:19:35;103026.13;;;6.09;76.42
78745;BME280;68064;53.100;8.824;2023-05-03T05:20:36;103027.16;;;6.11;75.84
78745;BME280;68064;53.100;8.824;2023-05-03T05:21:37;103026.56;;;6.14;76.16
78745;BME280;68064;53.100;8.824;2023-05-03T05:22:38;103033.72;;;6.18;75.98
78745;BME280;68064;53.100;8.824;2023-05-03T05:23:39;103033.00;;;6.19;75.37
78745;BME280;68064;53.100;8.824;2023-05-03T05:24:40;103035.81;;;6.22;75.40
78745;BME280;68064;53.100;8.824;2023-05-03T05:25:41;103036.13;;;6.25;75.42
78745;BME280;68064;53.100;8.824;2023-05-03T05:26:43;103029.84;;;6.21;73.64
78745;BME280;68064;53.100;8.824;2023-05-03T05:27:44;103034.03;;;6.21;72.24